Time;durP1;ratioP1;P1;durP2;ratioP2;P2;SDS_P1;SDS_P2;PMS_P1;PMS_P2;Temp;Humidity;BMP_temperature;BMP_pressure;BME280_temperature;BME280_humidity;BME280_pressure;Samples;Min_cycle;Max_cycle;Signal;HPM_P1;HPM_P2
2022/03/05 00:01:04;;;;;;;39.33;16.08;;;;;;;0.74;79.11;96829.84;5063180;28;20056;-58
2022/03/05 00:03:32;;;;;;;38.55;15.63;;;;;;;0.75;79.88;96826.78;5062788;28;20427;-56
2022/03/05 00:05:58;;;;;;;34.75;14.30;;;;;;;0.58;79.71;96799.47;5063062;28;20507;-58
2022/03/05 00:08:25;;;;;;;41.15;14.57;;;;;;;0.68;79.51;96826.41;5063208;28;20048;-59
2022/03/05 00:10:52;;;;;;;32.50;14.18;;;;;;;0.71;79.73;96820.34;5063334;28;20443;-58
2022/03/05 00:13:19;;;;;;;43.42;14.82;;;;;;;0.72;80.54;96821.97;5063329;28;20420;-58
2022/03/05 00:15:46;;;;;;;38.92;15.13;;;;;;;0.29;80.86;96731.03;5061097;28;20538;-58
2022/03/05 00:18:14;;;;;;;26.48;12.00;;;;;;;0.76;80.95;96822.16;5063286;28;20056;-58
2022/03/05 00:20:42;;;;;;;27.80;10.98;;;;;;;0.79;80.26;96835.94;5063378;28;20572;-58
2022/03/05 00:23:09;;;;;;;27.17;12.10;;;;;;;0.82;80.45;96816.22;5062710;28;20157;-56
2022/03/05 00:25:37;;;;;;;36.40;15.65;;;;;;;0.87;79.55;96829.72;5070395;28;20048;-58
2022/03/05 00:28:04;;;;;;;24.48;12.80;;;;;;;1.00;78.85;96826.09;5085544;28;20054;-59
2022/03/05 00:30:30;;;;;;;29.77;12.55;;;;;;;0.97;79.06;96829.47;5085678;28;20445;-58
2022/03/05 00:32:57;;;;;;;32.35;12.70;;;;;;;0.45;78.94;96751.31;5085893;28;20101;-55
2022/03/05 00:35:24;;;;;;;28.98;11.43;;;;;;;0.89;78.79;96793.97;5087186;28;20055;-59
2022/03/05 00:37:51;;;;;;;26.55;11.93;;;;;;;1.16;78.10;96826.47;5086991;28;20062;-57
2022/03/05 00:40:17;;;;;;;24.30;11.05;;;;;;;1.21;77.87;96818.97;5087034;28;20059;-58
2022/03/05 00:42:44;;;;;;;26.50;11.35;;;;;;;0.94;78.91;96785.66;5086775;28;20052;-58
2022/03/05 00:45:11;;;;;;;28.42;11.65;;;;;;;0.86;78.35;96779.06;5085451;28;20581;-58
2022/03/05 00:47:38;;;;;;;26.98;12.10;;;;;;;1.33;78.86;96813.69;5087198;28;20082;-58
2022/03/05 00:50:06;;;;;;;27.20;12.38;;;;;;;0.99;78.79;96761.78;5086441;28;20060;-59
2022/03/05 00:52:34;;;;;;;32.83;14.80;;;;;;;1.51;78.10;96812.63;5086629;28;20048;-56
2022/03/05 00:55:01;;;;;;;37.95;15.45;;;;;;;1.32;77.61;96760.28;5085036;28;20044;-57
2022/03/05 00:57:28;;;;;;;54.15;20.95;;;;;;;1.17;77.64;96719.00;5086312;28;20052;-59
2022/03/05 00:59:54;;;;;;;67.80;26.15;;;;;;;1.76;77.16;96799.31;5086479;28;20056;-58
2022/03/05 01:02:21;;;;;;;64.15;24.52;;;;;;;1.81;76.70;96793.72;5086616;28;20062;-59
2022/03/05 01:04:48;;;;;;;48.85;20.48;;;;;;;1.89;76.04;96801.94;5086704;28;20052;-60
2022/03/05 01:07:15;;;;;;;38.90;18.85;;;;;;;1.64;75.71;96789.06;5086366;28;20056;-59
2022/03/05 01:09:42;;;;;;;25.75;11.85;;;;;;;1.54;75.98;96760.16;5086154;28;20048;-56
2022/03/05 01:12:09;;;;;;;22.98;11.73;;;;;;;1.82;75.80;96800.81;5086488;28;20400;-59
2022/03/05 01:14:36;;;;;;;24.40;12.25;;;;;;;1.79;76.13;96801.44;5086312;28;20074;-59
2022/03/05 01:17:04;;;;;;;28.67;12.52;;;;;;;1.72;77.15;96801.91;5085722;28;20631;-58
2022/03/05 01:19:30;;;;;;;26.80;11.90;;;;;;;1.65;76.29;96776.19;5086090;28;20052;-56
2022/03/05 01:21:57;;;;;;;25.75;11.52;;;;;;;1.75;77.46;96789.53;5086527;28;20060;-58
2022/03/05 01:24:24;;;;;;;24.63;11.88;;;;;;;1.56;77.28;96779.72;5086033;28;20048;-55
2022/03/05 01:26:50;;;;;;;27.40;12.30;;;;;;;1.64;78.18;96785.50;5066821;28;20049;-59
2022/03/05 01:29:17;;;;;;;24.67;10.38;;;;;;;1.66;77.25;96796.94;5065989;28;20423;-56
2022/03/05 01:31:44;;;;;;;26.35;11.07;;;;;;;1.54;78.01;96771.06;5065510;28;20060;-57
2022/03/05 01:34:11;;;;;;;30.55;12.68;;;;;;;1.11;78.22;96723.81;5065636;28;20053;-59
2022/03/05 01:36:38;;;;;;;29.80;12.88;;;;;;;1.21;78.15;96747.25;5065858;28;20044;-56
2022/03/05 01:39:04;;;;;;;29.25;13.15;;;;;;;1.56;78.18;96793.34;5065772;28;20060;-56
2022/03/05 01:41:31;;;;;;;29.77;11.85;;;;;;;1.58;78.57;96791.13;5066025;28;20561;-58
2022/03/05 01:43:58;;;;;;;22.75;11.18;;;;;;;1.35;78.45;96765.09;5064181;28;20063;-59
2022/03/05 01:46:38;;;;;;;26.38;11.98;;;;;;;0.99;78.81;96734.53;5065781;28;20136;-57
2022/03/05 01:49:10;;;;;;;26.55;13.07;;;;;;;0.46;78.16;96654.03;5065393;28;20104;-58
2022/03/05 01:51:38;;;;;;;26.88;13.20;;;;;;;1.34;77.72;96789.97;5064283;28;20056;-59
2022/03/05 01:54:05;;;;;;;33.92;13.90;;;;;;;1.38;77.69;96794.47;5064138;28;20048;-56
2022/03/05 01:56:33;;;;;;;38.30;14.63;;;;;;;1.25;78.20;96770.84;5065906;28;20053;-61
2022/03/05 01:59:00;;;;;;;30.55;12.68;;;;;;;1.36;78.47;96796.69;5065552;28;20051;-57
2022/03/05 02:01:28;;;;;;;24.55;12.48;;;;;;;1.21;78.73;96802.59;5065025;28;20435;-56
2022/03/05 02:03:56;;;;;;;28.73;13.00;;;;;;;1.29;78.69;96799.09;5065097;28;20048;-57
2022/03/05 02:06:23;;;;;;;35.75;15.65;;;;;;;0.90;80.22;96807.28;5063996;28;20064;-56
2022/03/05 02:08:50;;;;;;;35.40;16.02;;;;;;;0.84;80.42;96808.53;5065159;28;20132;-57
2022/03/05 02:11:17;;;;;;;30.75;13.68;;;;;;;0.76;80.26;96784.78;5063315;28;20056;-58
2022/03/05 02:13:44;;;;;;;29.85;13.05;;;;;;;0.72;81.84;96811.06;5065094;28;20075;-56
2022/03/05 02:16:11;;;;;;;24.10;10.82;;;;;;;0.73;81.16;96806.41;5064875;28;20052;-58
2022/03/05 02:18:38;;;;;;;22.88;11.02;;;;;;;0.47;80.94;96759.16;5063631;28;20131;-57
2022/03/05 02:21:05;;;;;;;27.00;12.05;;;;;;;0.92;81.12;96804.25;5064756;28;20056;-59
2022/03/05 02:23:31;;;;;;;30.02;12.40;;;;;;;0.85;80.46;96782.91;5064446;28;20059;-58
2022/03/05 02:26:02;;;;;;;45.85;17.58;;;;;;;0.73;80.96;96776.41;5074438;28;20051;-58
2022/03/05 02:28:31;;;;;;;38.55;16.02;;;;;;;0.93;81.02;96773.94;5084728;28;20067;-57
2022/03/05 02:30:58;;;;;;;37.50;15.07;;;;;;;1.15;80.86;96820.25;5084517;28;20052;-56
2022/03/05 02:33:25;;;;;;;36.17;14.85;;;;;;;1.26;80.67;96809.84;5084345;28;20048;-56
2022/03/05 02:35:52;;;;;;;35.60;16.63;;;;;;;1.36;80.38;96804.88;5084894;28;20044;-58
2022/03/05 02:38:22;;;;;;;30.30;16.13;;;;;;;1.23;80.26;96781.25;5085233;28;20403;-58
2022/03/05 02:40:50;;;;;;;39.47;17.70;;;;;;;1.01;80.80;96759.53;5084893;28;20050;-57
2022/03/05 02:43:18;;;;;;;34.33;15.25;;;;;;;1.41;79.85;96802.00;5084651;28;20052;-58
2022/03/05 02:45:45;;;;;;;35.05;15.32;;;;;;;1.27;79.22;96784.97;5084674;28;20253;-58
2022/03/05 02:48:14;;;;;;;35.20;15.20;;;;;;;1.45;79.99;96802.19;5083043;28;20043;-58
2022/03/05 02:50:42;;;;;;;35.08;14.70;;;;;;;1.20;80.81;96809.16;5084060;28;20054;-57
2022/03/05 02:53:09;;;;;;;23.02;10.98;;;;;;;0.72;83.57;96808.34;5084614;28;20048;-59
2022/03/05 02:55:36;;;;;;;25.08;11.82;;;;;;;0.66;84.30;96795.97;5084141;28;20059;-59
2022/03/05 02:58:03;;;;;;;27.13;12.10;;;;;;;0.89;84.37;96808.41;5084692;28;20164;-59
2022/03/05 03:00:31;;;;;;;34.63;14.35;;;;;;;0.95;83.25;96809.09;5084574;28;20063;-57
2022/03/05 03:02:58;;;;;;;32.45;13.90;;;;;;;1.04;82.90;96786.16;5084296;28;20051;-59
2022/03/05 03:05:25;;;;;;;36.40;14.77;;;;;;;0.72;82.85;96744.84;5084356;28;20083;-58
2022/03/05 03:07:52;;;;;;;31.95;14.18;;;;;;;1.27;82.66;96798.59;5084031;28;20052;-58
2022/03/05 03:10:19;;;;;;;34.88;14.77;;;;;;;1.12;80.92;96782.66;5082716;28;20064;-56
2022/03/05 03:12:46;;;;;;;37.63;14.45;;;;;;;1.14;81.78;96801.44;5084021;28;20594;-59
2022/03/05 03:15:14;;;;;;;32.30;14.68;;;;;;;1.30;81.52;96816.25;5083566;28;20059;-58
2022/03/05 03:17:47;;;;;;;34.47;14.73;;;;;;;1.00;81.05;96774.28;5083917;28;20064;-58
2022/03/05 03:20:17;;;;;;;32.53;14.55;;;;;;;0.40;82.08;96661.53;5084219;28;20064;-56
2022/03/05 03:22:45;;;;;;;35.03;14.95;;;;;;;1.38;80.86;96824.47;5083859;28;20439;-57
2022/03/05 03:25:12;;;;;;;29.15;13.75;;;;;;;0.77;83.11;96824.56;5078045;28;20491;-58
2022/03/05 03:27:39;;;;;;;36.95;14.82;;;;;;;0.96;83.21;96819.69;5062160;28;20048;-56
2022/03/05 03:30:08;;;;;;;34.33;14.55;;;;;;;0.61;82.03;96749.78;5063531;28;20048;-57
2022/03/05 03:32:35;;;;;;;36.15;14.90;;;;;;;1.05;82.17;96820.53;5063649;28;20696;-59
2022/03/05 03:35:03;;;;;;;28.13;13.07;;;;;;;1.09;82.31;96826.94;5063918;28;20059;-59
2022/03/05 03:37:31;;;;;;;23.38;11.70;;;;;;;1.10;81.55;96823.09;5063382;28;20044;-59
2022/03/05 03:39:59;;;;;;;29.88;11.73;;;;;;;1.13;81.44;96811.56;5063394;28;20053;-57
2022/03/05 03:42:26;;;;;;;32.05;16.23;;;;;;;1.22;81.23;96820.56;5063270;28;20059;-59
2022/03/05 03:44:53;;;;;;;35.58;15.43;;;;;;;0.79;81.47;96729.63;5062026;28;20091;-59
2022/03/05 03:47:21;;;;;;;42.35;16.70;;;;;;;0.81;81.48;96738.31;5063253;28;20084;-59
2022/03/05 03:49:48;;;;;;;33.72;15.57;;;;;;;0.57;80.72;96686.13;5062039;28;20589;-59
2022/03/05 03:52:15;;;;;;;29.08;13.00;;;;;;;1.36;80.59;96825.91;5063226;28;20052;-58
2022/03/05 03:54:44;;;;;;;56.45;22.52;;;;;;;1.36;82.49;96820.44;5063694;28;20052;-56
2022/03/05 03:57:11;;;;;;;59.03;26.90;;;;;;;0.89;82.44;96745.72;5061872;28;20048;-58
2022/03/05 03:59:38;;;;;;;78.13;30.95;;;;;;;1.33;83.08;96816.44;5063540;28;20049;-57
2022/03/05 04:02:06;;;;;;;74.30;34.97;;;;;;;1.35;83.07;96822.38;5063981;28;20053;-55
2022/03/05 04:04:33;;;;;;;47.33;24.13;;;;;;;1.41;83.25;96828.47;5065927;28;20138;-58
2022/03/05 04:09:45;;;;;;;25.13;12.45;;;;;;;1.40;81.58;96830.44;5067381;28;20056;-58
2022/03/05 04:12:11;;;;;;;25.13;11.32;;;;;;;1.39;81.11;96828.03;5067356;28;20052;-55
2022/03/05 04:14:38;;;;;;;24.33;11.75;;;;;;;1.31;80.59;96824.13;5066928;28;20206;-57
2022/03/05 04:17:06;;;;;;;30.52;13.77;;;;;;;0.65;81.68;96737.13;5067194;28;20072;-59
2022/03/05 04:19:33;;;;;;;29.58;12.85;;;;;;;1.21;81.24;96835.34;5067250;28;20583;-59
2022/03/05 04:22:00;;;;;;;25.50;12.43;;;;;;;-2.33;81.01;96295.72;5066184;28;20064;-58
2022/03/05 04:24:27;;;;;;;23.45;11.57;;;;;;;0.91;81.72;96789.00;5066933;28;20067;-55
2022/03/05 04:26:54;;;;;;;26.88;11.45;;;;;;;1.03;82.48;96841.84;5083876;28;20048;-58
2022/03/05 04:29:21;;;;;;;17.95;9.93;;;;;;;0.82;83.90;96832.59;5086830;28;20052;-57
2022/03/05 04:31:48;;;;;;;26.20;11.25;;;;;;;0.96;83.87;96838.78;5087195;28;20250;-58
2022/03/05 04:34:15;;;;;;;29.40;12.90;;;;;;;0.99;83.25;96838.13;5087357;28;20048;-55
2022/03/05 04:36:42;;;;;;;33.47;13.60;;;;;;;0.51;83.52;96766.38;5085982;28;20082;-58
2022/03/05 04:39:09;;;;;;;26.92;13.10;;;;;;;1.24;82.51;96842.91;5087512;28;20052;-58
2022/03/05 04:41:35;;;;;;;24.20;12.63;;;;;;;1.16;81.79;96832.75;5087445;28;20056;-58
2022/03/05 04:44:03;;;;;;;26.25;11.90;;;;;;;1.23;82.78;96844.00;5086610;28;20510;-55
2022/03/05 04:46:30;;;;;;;25.88;12.02;;;;;;;0.90;82.98;96760.94;5086365;28;20079;-58
2022/03/05 04:48:57;;;;;;;51.70;20.15;;;;;;;1.34;82.84;96833.63;5086565;28;20059;-60
2022/03/05 04:51:23;;;;;;;51.88;22.73;;;;;;;1.08;82.42;96830.78;5086392;28;20056;-56
2022/03/05 04:53:50;;;;;;;33.72;16.23;;;;;;;1.32;82.77;96853.03;5086798;28;20066;-59
2022/03/05 04:56:17;;;;;;;32.90;16.23;;;;;;;1.15;82.00;96813.97;5086369;28;20052;-56
2022/03/05 04:58:44;;;;;;;33.08;14.57;;;;;;;1.54;81.36;96838.47;5086589;28;20090;-58
2022/03/05 05:01:11;;;;;;;42.22;19.30;;;;;;;1.63;81.58;96842.03;5086650;28;20051;-55
2022/03/05 05:03:38;;;;;;;29.80;13.57;;;;;;;1.11;79.81;96755.72;5086604;28;20498;-56
2022/03/05 05:06:06;;;;;;;25.35;10.70;;;;;;;1.24;82.05;96840.16;5086274;28;20058;-58
2022/03/05 05:08:32;;;;;;;24.45;10.60;;;;;;;0.80;84.22;96834.84;5086048;28;20511;-56
2022/03/05 05:10:59;;;;;;;24.02;11.43;;;;;;;0.62;87.00;96814.06;5085567;28;20067;-59
2022/03/05 05:13:26;;;;;;;23.35;11.20;;;;;;;0.64;85.04;96809.09;5085338;28;20056;-58
2022/03/05 05:15:53;;;;;;;28.48;11.10;;;;;;;1.26;85.40;96858.94;5085183;28;20060;-58
2022/03/05 05:18:20;;;;;;;32.35;13.35;;;;;;;1.39;84.46;96872.47;5085532;28;20055;-56
2022/03/05 05:20:46;;;;;;;36.97;16.55;;;;;;;1.56;83.13;96874.44;5085438;28;20052;-57
2022/03/05 05:23:13;;;;;;;36.42;16.25;;;;;;;1.64;82.54;96851.03;5085112;28;20062;-58
2022/03/05 05:25:40;;;;;;;58.13;21.98;;;;;;;1.85;82.01;96887.53;5077381;28;20044;-56
2022/03/05 05:28:07;;;;;;;71.50;29.27;;;;;;;1.54;81.94;96888.41;5064631;28;20051;-59
2022/03/05 05:30:33;;;;;;;54.35;25.17;;;;;;;1.43;81.33;96780.69;5067276;28;20047;-55
2022/03/05 05:33:00;;;;;;;48.33;22.40;;;;;;;2.14;81.15;96879.53;5068544;28;20101;-59
2022/03/05 05:35:28;;;;;;;66.07;28.05;;;;;;;2.28;80.57;96885.63;5064738;28;20058;-59
2022/03/05 05:37:54;;;;;;;119.18;48.38;;;;;;;1.96;80.67;96861.53;5064926;28;20056;-56
2022/03/05 05:40:21;;;;;;;78.53;32.55;;;;;;;2.18;79.58;96891.44;5063658;28;20383;-59
2022/03/05 05:42:48;;;;;;;80.88;30.98;;;;;;;2.20;80.19;96889.16;5064472;28;20056;-56
2022/03/05 05:45:14;;;;;;;84.32;32.47;;;;;;;2.40;79.53;96888.56;5064417;28;20063;-56
2022/03/05 05:47:41;;;;;;;79.22;34.20;;;;;;;2.21;78.12;96863.47;5064417;28;20056;-56
2022/03/05 05:50:08;;;;;;;59.88;28.38;;;;;;;2.52;78.25;96894.16;5062752;28;20052;-56
2022/03/05 05:52:35;;;;;;;52.38;23.83;;;;;;;2.32;78.21;96860.09;5064804;28;20135;-56
2022/03/05 05:55:02;;;;;;;59.00;27.45;;;;;;;2.60;77.85;96907.03;5064646;28;20045;-56
2022/03/05 05:57:29;;;;;;;66.00;34.17;;;;;;;2.64;77.53;96905.28;5064340;28;20052;-58
2022/03/05 05:59:56;;;;;;;73.80;34.95;;;;;;;2.74;77.23;96913.94;5064051;28;20067;-55
2022/03/05 06:02:23;;;;;;;76.25;36.67;;;;;;;2.79;76.65;96907.50;5062946;28;20530;-57
2022/03/05 06:04:50;;;;;;;84.63;39.28;;;;;;;2.70;76.47;96893.03;5064238;28;20063;-57
2022/03/05 06:07:17;;;;;;;42.95;19.15;;;;;;;2.73;77.04;96919.72;5064008;28;20486;-59
2022/03/05 06:09:43;;;;;;;31.38;15.02;;;;;;;2.65;78.28;96906.88;5062323;28;20122;-58
2022/03/05 06:12:14;;;;;;;44.40;18.98;;;;;;;1.90;78.37;96791.81;5063937;28;20088;-58
2022/03/05 06:14:41;;;;;;;54.27;19.33;;;;;;;2.47;78.34;96918.91;5022615;28;1179790;-56
2022/03/05 06:17:08;;;;;;;35.17;17.45;;;;;;;1.93;80.31;96864.91;5064870;28;20044;-57
2022/03/05 06:19:35;;;;;;;49.55;21.25;;;;;;;1.97;81.83;96925.94;5063803;28;20102;-58
2022/03/05 06:22:03;;;;;;;35.30;17.63;;;;;;;1.71;81.01;96848.66;5063314;28;20056;-56
2022/03/05 06:24:30;;;;;;;35.58;17.48;;;;;;;2.58;80.03;96922.94;5064343;28;20049;-56
2022/03/05 06:26:56;;;;;;;35.50;17.38;;;;;;;1.96;79.01;96785.06;5082439;28;20079;-59
2022/03/05 06:29:23;;;;;;;31.60;15.80;;;;;;;3.06;77.90;96935.31;5084785;28;20056;-59
2022/03/05 06:31:51;;;;;;;38.95;17.95;;;;;;;3.06;76.24;96910.69;5084710;28;20075;-60
2022/03/05 06:34:17;;;;;;;59.72;25.13;;;;;;;3.39;76.03;96943.75;5083485;28;20055;-60
2022/03/05 06:36:44;;;;;;;62.05;26.77;;;;;;;3.02;75.41;96893.28;5084468;28;20063;-59
2022/03/05 06:39:11;;;;;;;63.17;27.65;;;;;;;3.66;74.21;96937.84;5085109;28;20048;-59
2022/03/05 06:41:37;;;;;;;55.67;27.02;;;;;;;3.65;74.30;96947.19;5084515;28;20052;-60
2022/03/05 06:44:06;;;;;;;57.15;25.83;;;;;;;3.93;73.01;96934.66;5084985;28;20360;-59
2022/03/05 06:46:33;;;;;;;64.13;25.40;;;;;;;3.80;73.37;96894.59;5084475;28;20502;-57
2022/03/05 06:49:00;;;;;;;56.15;25.70;;;;;;;4.16;72.15;96935.97;5084498;28;20054;-60
2022/03/05 06:51:27;;;;;;;52.75;23.92;;;;;;;3.57;71.80;96821.28;5083304;28;20051;-57
2022/03/05 06:53:53;;;;;;;66.03;23.48;;;;;;;4.52;71.27;96938.94;5083152;28;20044;-58
2022/03/05 06:56:20;;;;;;;60.75;26.08;;;;;;;4.43;70.45;96894.34;5084528;28;20059;-59
2022/03/05 06:58:47;;;;;;;53.13;25.90;;;;;;;4.74;68.86;96895.88;5084255;28;20060;-59
2022/03/05 07:01:13;;;;;;;41.40;21.27;;;;;;;5.08;67.39;96939.44;5084497;28;20056;-57
2022/03/05 07:03:40;;;;;;;47.97;20.85;;;;;;;5.33;67.22;96941.13;5084187;28;20496;-57
2022/03/05 07:06:07;;;;;;;46.28;20.08;;;;;;;5.35;65.22;96925.94;5082608;28;20052;-60
2022/03/05 07:08:35;;;;;;;37.65;18.65;;;;;;;5.75;64.52;96934.38;5084397;28;20054;-57
2022/03/05 07:11:02;;;;;;;56.33;26.85;;;;;;;5.75;64.18;96906.88;5084311;28;20066;-60
2022/03/05 07:13:29;;;;;;;67.85;31.38;;;;;;;6.20;62.15;96937.84;5082975;28;20060;-60
2022/03/05 07:15:56;;;;;;;64.63;30.27;;;;;;;6.41;60.13;96944.00;5083672;28;20051;-58
2022/03/05 07:18:22;;;;;;;59.83;31.10;;;;;;;6.51;59.77;96946.31;5083661;28;20063;-57
2022/03/05 07:20:49;;;;;;;58.80;28.77;;;;;;;6.40;59.75;96945.19;5082047;28;20142;-60
2022/03/05 07:23:16;;;;;;;50.85;27.63;;;;;;;6.40;59.62;96903.91;5083543;28;20507;-58
2022/03/05 07:25:43;;;;;;;57.80;25.75;;;;;;;6.45;59.77;96886.34;5076710;28;20411;-59
2022/03/05 07:28:11;;;;;;;49.15;24.50;;;;;;;7.09;59.06;96948.44;5063116;28;20044;-57
2022/03/05 07:30:38;;;;;;;50.35;26.17;;;;;;;7.11;58.08;96951.63;5063562;28;20056;-59
2022/03/05 07:33:11;;;;;;;53.33;24.60;;;;;;;7.19;57.29;96939.66;5063406;28;20181;-60
2022/03/05 07:35:37;;;;;;;46.35;22.17;;;;;;;7.38;57.12;96939.78;5061755;28;20080;-61
2022/03/05 07:38:04;;;;;;;45.67;20.58;;;;;;;6.83;59.04;96862.72;5064029;28;20384;-59
2022/03/05 07:40:31;;;;;;;37.40;19.33;;;;;;;6.39;62.21;96863.78;5063862;28;20048;-57
2022/03/05 07:42:57;;;;;;;36.20;17.88;;;;;;;6.90;63.05;96934.50;5063808;28;20060;-60
2022/03/05 07:45:24;;;;;;;31.27;16.92;;;;;;;6.65;65.64;96919.22;5063108;28;20045;-57
2022/03/05 07:47:51;;;;;;;36.17;17.45;;;;;;;6.62;64.50;96889.63;5063204;28;20055;-57
2022/03/05 07:50:18;;;;;;;31.23;16.20;;;;;;;7.21;64.14;96939.31;5062979;28;20049;-57
2022/03/05 07:52:44;;;;;;;40.17;19.63;;;;;;;7.23;62.43;96940.56;5061802;28;20056;-57
2022/03/05 07:55:11;;;;;;;44.53;22.23;;;;;;;7.02;64.07;96942.72;5062793;28;20058;-59
2022/03/05 07:57:39;;;;;;;48.33;24.65;;;;;;;7.18;63.82;96935.31;5063181;28;20059;-59
2022/03/05 08:00:06;;;;;;;50.20;24.52;;;;;;;6.82;63.05;96894.16;5062642;28;20045;-58
2022/03/05 08:02:50;;;;;;;46.58;24.33;;;;;;;7.36;63.33;96947.63;5057185;28;20056;-57
2022/03/05 08:05:17;;;;;;;46.30;21.95;;;;;;;7.61;63.16;96943.59;5061453;28;20130;-59
2022/03/05 08:07:44;;;;;;;42.00;21.85;;;;;;;8.20;60.38;96937.19;5060810;28;20079;-63
2022/03/05 08:10:11;;;;;;;32.80;15.98;;;;;;;8.41;55.46;96940.50;5061837;28;20053;-56
2022/03/05 08:12:38;;;;;;;35.10;18.35;;;;;;;8.42;55.65;96933.81;5061844;28;20139;-56
2022/03/05 08:15:06;;;;;;;35.30;19.02;;;;;;;8.92;55.38;96931.00;5062285;28;20052;-58
2022/03/05 08:17:33;;;;;;;35.10;18.15;;;;;;;8.67;53.61;96852.34;5061617;28;20056;-57
2022/03/05 08:20:00;;;;;;;39.63;18.58;;;;;;;9.63;52.49;96934.00;5059524;28;20044;-56
2022/03/05 08:22:28;;;;;;;32.58;16.80;;;;;;;9.65;51.39;96941.94;5061809;28;20053;-61
2022/03/05 08:24:55;;;;;;;37.63;17.15;;;;;;;9.65;50.76;96909.56;5060082;28;20059;-59
2022/03/05 08:27:21;;;;;;;40.53;26.17;;;;;;;8.56;52.44;96876.16;5061726;28;20719;-55
2022/03/05 08:29:48;;;;;;;180.82;136.02;;;;;;;9.05;50.42;96935.22;5059665;28;20495;-65
2022/03/05 08:32:15;;;;;;;85.72;43.03;;;;;;;9.29;50.46;96939.66;5061815;28;20063;-58
2022/03/05 08:34:41;;;;;;;27.02;15.15;;;;;;;8.54;50.55;96942.78;5061426;28;20041;-63
2022/03/05 08:37:08;;;;;;;28.88;15.00;;;;;;;7.29;52.32;96895.06;5062338;28;20067;-69
2022/03/05 08:39:35;;;;;;;27.77;13.77;;;;;;;6.57;54.34;96891.81;5061823;28;20478;-55
2022/03/05 08:42:02;;;;;;;29.35;15.52;;;;;;;7.50;54.28;96931.47;5062141;28;20491;-56
2022/03/05 08:44:29;;;;;;;27.35;15.00;;;;;;;7.66;53.67;96950.78;5061695;28;20086;-66
2022/03/05 08:46:56;;;;;;;30.80;15.45;;;;;;;7.76;54.04;96943.97;5060248;28;20475;-56
2022/03/05 08:49:23;;;;;;;28.48;15.05;;;;;;;7.51;54.33;96946.84;5064069;28;20059;-64
2022/03/05 08:51:49;;;;;;;28.02;14.48;;;;;;;7.23;55.43;96948.84;5063351;28;20114;-63
2022/03/05 08:54:18;;;;;;;29.05;13.23;;;;;;;7.53;54.12;96903.22;5062701;28;20040;-55
2022/03/05 08:56:45;;;;;;;22.88;12.32;;;;;;;8.05;52.85;96943.50;5062556;28;20147;-61
2022/03/05 08:59:12;;;;;;;25.15;13.55;;;;;;;8.23;52.47;96931.78;5062343;28;20049;-60
2022/03/05 09:01:38;;;;;;;33.33;15.38;;;;;;;8.58;52.92;96948.38;5064111;28;20044;-64
2022/03/05 09:04:06;;;;;;;21.08;11.05;;;;;;;8.49;50.53;96950.53;5062937;28;20219;-62
2022/03/05 09:06:32;;;;;;;27.85;12.75;;;;;;;8.36;50.38;96951.81;5063801;28;20447;-63
2022/03/05 09:09:02;;;;;;;24.83;12.48;;;;;;;8.17;50.72;96885.50;5065794;28;20052;-55
2022/03/05 09:11:29;;;;;;;24.55;12.65;;;;;;;8.05;50.42;96896.63;5065324;28;20044;-56
2022/03/05 09:13:56;;;;;;;26.77;13.30;;;;;;;8.64;50.13;96947.75;5064691;28;20052;-64
2022/03/05 09:16:22;;;;;;;25.20;12.05;;;;;;;8.89;48.94;96948.28;5062945;28;20354;-60
2022/03/05 09:18:49;;;;;;;28.20;13.65;;;;;;;9.17;49.38;96959.94;5064518;28;20419;-61
2022/03/05 09:21:16;;;;;;;22.52;10.10;;;;;;;9.36;48.05;96957.19;5064194;28;20048;-56
2022/03/05 09:23:43;;;;;;;18.88;9.48;;;;;;;9.37;46.35;96953.25;5065349;28;20499;-62
2022/03/05 09:26:10;;;;;;;22.58;10.60;;;;;;;9.58;47.59;96959.19;5065813;28;20051;-64
2022/03/05 09:28:36;;;;;;;22.45;11.40;;;;;;;9.84;47.03;96906.75;5065421;28;20048;-56
2022/03/05 09:31:03;;;;;;;21.25;11.38;;;;;;;9.92;45.47;96874.47;5064934;28;20052;-62
2022/03/05 09:33:30;;;;;;;22.48;11.30;;;;;;;10.63;44.70;96950.00;5064111;28;20079;-57
2022/03/05 09:35:57;;;;;;;22.15;12.45;;;;;;;10.88;44.33;96949.53;5065577;28;20867;-61
2022/03/05 09:38:24;;;;;;;19.02;10.70;;;;;;;10.49;43.82;96880.56;5062499;28;20834;-63
2022/03/05 09:40:51;;;;;;;25.90;15.82;;;;;;;10.54;43.39;96885.75;5063599;28;20041;-55
2022/03/05 09:43:19;;;;;;;22.98;15.18;;;;;;;11.22;42.84;96962.31;5064873;28;20239;-55
2022/03/05 09:45:46;;;;;;;33.85;15.10;;;;;;;10.89;43.17;96917.91;5065403;28;20094;-61
2022/03/05 09:48:17;;;;;;;32.65;16.65;;;;;;;11.05;43.33;96965.63;5064058;28;20059;-61
2022/03/05 09:50:44;;;;;;;26.55;13.35;;;;;;;11.06;43.22;96956.94;5063437;28;20139;-60
2022/03/05 09:53:12;;;;;;;30.02;19.05;;;;;;;10.92;43.76;96961.50;5064600;28;20056;-54
2022/03/05 09:55:38;;;;;;;36.50;16.48;;;;;;;10.79;43.96;96968.41;5064344;28;20063;-63
2022/03/05 09:58:25;;;;;;;20.88;11.23;;;;;;;10.58;43.74;96950.31;5062207;28;20040;-61
2022/03/05 10:00:52;;;;;;;24.60;11.43;;;;;;;10.65;43.51;96957.94;5061590;28;20044;-56
2022/03/05 10:03:20;;;;;;;19.58;10.65;;;;;;;10.51;43.69;96968.81;5064007;28;20649;-55
2022/03/05 10:05:47;;;;;;;107.88;96.68;;;;;;;10.20;43.26;96914.50;5064159;28;20052;-60
2022/03/05 10:08:15;;;;;;;20.30;11.95;;;;;;;10.62;43.18;96962.22;5062585;28;20048;-58
2022/03/05 10:10:47;;;;;;;19.92;9.68;;;;;;;10.73;43.00;96965.97;5062102;28;20071;-56
2022/03/05 10:13:24;;;;;;;21.65;11.07;;;;;;;10.78;42.70;96969.59;5063561;28;20202;-57
2022/03/05 10:15:53;;;;;;;20.75;10.60;;;;;;;10.64;42.84;96968.22;5061577;28;20450;-56
2022/03/05 10:18:31;;;;;;;17.70;9.05;;;;;;;10.72;42.58;96962.78;5063702;28;20094;-58
2022/03/05 10:21:05;;;;;;;16.90;8.98;;;;;;;10.78;42.95;96955.75;5064537;28;20050;-61
2022/03/05 10:23:43;;;;;;;20.10;11.23;;;;;;;10.49;42.23;96911.00;5064210;28;20419;-56
2022/03/05 10:26:10;;;;;;;35.20;15.07;;;;;;;10.68;43.05;96941.34;5063657;28;20052;-57
2022/03/05 10:28:38;;;;;;;32.58;14.27;;;;;;;11.05;42.91;96954.56;5061329;28;20044;-62
2022/03/05 10:31:08;;;;;;;14.63;8.75;;;;;;;10.36;43.13;96959.47;5063991;28;20055;-63
2022/03/05 10:33:43;;;;;;;18.92;9.48;;;;;;;9.49;45.38;96955.06;5062817;28;20052;-56
2022/03/05 10:36:21;;;;;;;17.60;8.80;;;;;;;9.96;45.04;96953.59;5062741;28;20499;-57
2022/03/05 10:38:51;;;;;;;18.60;9.95;;;;;;;9.14;46.51;96957.91;5051668;28;20051;-56
2022/03/05 10:41:33;;;;;;;19.88;10.25;;;;;;;9.37;45.75;96952.47;5062768;28;20515;-62
2022/03/05 10:44:26;;;;;;;18.33;10.40;;;;;;;9.83;45.30;96954.91;5062683;28;20057;-65
2022/03/05 10:47:01;;;;;;;17.35;9.23;;;;;;;9.35;45.46;96882.91;5061691;28;20052;-59
2022/03/05 10:49:36;;;;;;;18.05;9.13;;;;;;;9.31;46.42;96943.63;5061842;28;20483;-62
2022/03/05 10:52:03;;;;;;;15.82;6.65;;;;;;;9.38;45.89;96948.50;5063594;28;20049;-56
2022/03/05 10:54:31;;;;;;;19.42;10.05;;;;;;;9.31;46.50;96946.41;5061066;28;20044;-55
2022/03/05 10:57:09;;;;;;;18.52;9.82;;;;;;;9.89;45.12;96942.41;5064113;28;20044;-56
2022/03/05 10:59:41;;;;;;;18.60;8.95;;;;;;;9.25;45.37;96842.84;5043484;28;20060;-58
2022/03/05 11:02:10;;;;;;;16.75;9.00;;;;;;;10.18;45.08;96927.13;5043548;28;20546;-58
2022/03/05 11:04:39;;;;;;;19.27;9.40;;;;;;;10.37;44.21;96900.13;5043875;28;20052;-64
2022/03/05 11:07:07;;;;;;;20.63;9.80;;;;;;;9.15;46.99;96918.84;5045312;28;20091;-57
2022/03/05 11:09:36;;;;;;;21.13;10.32;;;;;;;9.74;47.25;96923.94;5062960;28;20561;-57
2022/03/05 11:12:07;;;;;;;18.60;9.60;;;;;;;9.97;44.81;96827.13;5062049;28;20048;-65
2022/03/05 11:14:34;;;;;;;18.65;9.73;;;;;;;8.32;44.59;96537.00;5063135;28;20464;-67
2022/03/05 11:17:01;;;;;;;15.18;8.52;;;;;;;10.53;45.03;96919.34;5052985;28;20515;-62
2022/03/05 11:19:30;;;;;;;16.58;9.10;;;;;;;10.54;44.87;96913.44;5060865;28;20048;-58
2022/03/05 11:21:58;;;;;;;17.13;9.55;;;;;;;10.29;45.13;96917.03;5061448;28;20381;-56
2022/03/05 11:24:25;;;;;;;20.88;10.63;;;;;;;9.83;46.19;96932.78;5062668;28;20048;-56
2022/03/05 11:26:55;;;;;;;18.10;9.60;;;;;;;10.14;45.73;96916.00;5065765;28;20048;-57
2022/03/05 11:29:29;;;;;;;15.80;8.90;;;;;;;10.28;45.35;96916.22;5068155;28;20052;-60